sensor_id;sensor_type;location;lat;lon;timestamp;P1;P2;P0
59179;PMS7003;44956;52.422;20.818;2024-03-07T00:02:41;51.50;41.25;25.00
59179;PMS7003;44956;52.422;20.818;2024-03-07T00:06:09;45.75;38.00;20.50
59179;PMS7003;44956;52.422;20.818;2024-03-07T00:09:11;52.00;42.67;24.00
59179;PMS7003;44956;52.422;20.818;2024-03-07T00:12:14;50.67;39.33;21.33
59179;PMS7003;44956;52.422;20.818;2024-03-07T00:15:17;42.75;37.75;22.00
59179;PMS7003;44956;52.422;20.818;2024-03-07T00:18:20;50.50;41.00;22.00
59179;PMS7003;44956;52.422;20.818;2024-03-07T00:21:23;47.50;38.50;24.25
59179;PMS7003;44956;52.422;20.818;2024-03-07T00:24:26;52.50;40.00;21.25
59179;PMS7003;44956;52.422;20.818;2024-03-07T00:27:29;43.50;38.00;22.00
59179;PMS7003;44956;52.422;20.818;2024-03-07T00:30:34;46.75;41.00;24.50
59179;PMS7003;44956;52.422;20.818;2024-03-07T00:33:37;45.25;40.75;24.50
59179;PMS7003;44956;52.422;20.818;2024-03-07T00:36:59;33.75;28.75;21.75
59179;PMS7003;44956;52.422;20.818;2024-03-07T00:40:02;51.25;41.25;21.50
59179;PMS7003;44956;52.422;20.818;2024-03-07T00:43:06;55.25;44.25;24.25
59179;PMS7003;44956;52.422;20.818;2024-03-07T00:46:08;49.25;35.00;22.00
59179;PMS7003;44956;52.422;20.818;2024-03-07T00:49:13;47.75;43.50;26.00
59179;PMS7003;44956;52.422;20.818;2024-03-07T00:52:16;52.25;45.50;24.25
59179;PMS7003;44956;52.422;20.818;2024-03-07T00:55:19;51.50;45.00;22.50
59179;PMS7003;44956;52.422;20.818;2024-03-07T00:58:22;53.75;41.75;22.25
59179;PMS7003;44956;52.422;20.818;2024-03-07T01:01:24;47.00;40.75;23.00
59179;PMS7003;44956;52.422;20.818;2024-03-07T01:04:27;56.25;43.25;25.00
59179;PMS7003;44956;52.422;20.818;2024-03-07T01:07:39;51.25;42.75;24.00
59179;PMS7003;44956;52.422;20.818;2024-03-07T01:10:42;44.00;38.00;24.00
59179;PMS7003;44956;52.422;20.818;2024-03-07T01:13:45;49.00;36.00;21.75
59179;PMS7003;44956;52.422;20.818;2024-03-07T01:16:47;54.50;45.25;25.00
59179;PMS7003;44956;52.422;20.818;2024-03-07T01:19:51;41.00;37.00;20.00
59179;PMS7003;44956;52.422;20.818;2024-03-07T01:22:54;35.25;34.00;18.00
59179;PMS7003;44956;52.422;20.818;2024-03-07T01:25:59;50.50;41.50;22.00
59179;PMS7003;44956;52.422;20.818;2024-03-07T01:29:02;46.75;43.25;23.25
59179;PMS7003;44956;52.422;20.818;2024-03-07T01:32:05;51.50;41.25;21.00
59179;PMS7003;44956;52.422;20.818;2024-03-07T01:35:08;50.00;41.50;21.00
59179;PMS7003;44956;52.422;20.818;2024-03-07T01:38:12;58.75;43.25;24.75
59179;PMS7003;44956;52.422;20.818;2024-03-07T01:41:15;50.00;40.25;21.75
59179;PMS7003;44956;52.422;20.818;2024-03-07T01:44:18;48.50;43.25;24.00
59179;PMS7003;44956;52.422;20.818;2024-03-07T01:47:21;47.00;35.75;22.75
59179;PMS7003;44956;52.422;20.818;2024-03-07T01:50:24;48.25;41.25;22.50
59179;PMS7003;44956;52.422;20.818;2024-03-07T01:53:27;44.50;36.00;22.50
59179;PMS7003;44956;52.422;20.818;2024-03-07T01:56:30;44.50;39.75;22.50
59179;PMS7003;44956;52.422;20.818;2024-03-07T01:59:33;41.25;37.25;20.00
59179;PMS7003;44956;52.422;20.818;2024-03-07T02:02:38;42.50;38.50;22.00
59179;PMS7003;44956;52.422;20.818;2024-03-07T02:05:41;48.00;38.75;18.00
59179;PMS7003;44956;52.422;20.818;2024-03-07T02:08:44;40.75;36.50;22.00
59179;PMS7003;44956;52.422;20.818;2024-03-07T02:11:47;40.50;30.50;13.00
59179;PMS7003;44956;52.422;20.818;2024-03-07T02:14:51;50.75;40.50;21.50
59179;PMS7003;44956;52.422;20.818;2024-03-07T02:17:54;47.50;39.25;20.50
59179;PMS7003;44956;52.422;20.818;2024-03-07T02:20:57;47.50;39.50;22.00
59179;PMS7003;44956;52.422;20.818;2024-03-07T02:24:00;50.75;42.25;22.00
59179;PMS7003;44956;52.422;20.818;2024-03-07T02:27:03;49.75;41.75;21.00
59179;PMS7003;44956;52.422;20.818;2024-03-07T02:30:05;43.00;37.00;21.25
59179;PMS7003;44956;52.422;20.818;2024-03-07T02:33:11;49.00;39.25;21.75
59179;PMS7003;44956;52.422;20.818;2024-03-07T02:36:14;51.25;41.50;20.50
59179;PMS7003;44956;52.422;20.818;2024-03-07T02:39:17;39.25;37.75;22.00
59179;PMS7003;44956;52.422;20.818;2024-03-07T02:42:19;44.25;36.00;21.50
59179;PMS7003;44956;52.422;20.818;2024-03-07T02:45:22;48.50;41.00;23.00
59179;PMS7003;44956;52.422;20.818;2024-03-07T02:48:25;40.25;35.25;23.25
59179;PMS7003;44956;52.422;20.818;2024-03-07T02:51:28;46.50;38.50;20.00
59179;PMS7003;44956;52.422;20.818;2024-03-07T02:54:30;49.25;45.00;24.75
59179;PMS7003;44956;52.422;20.818;2024-03-07T02:57:34;54.50;43.50;24.00
59179;PMS7003;44956;52.422;20.818;2024-03-07T03:00:37;42.50;35.00;21.25
59179;PMS7003;44956;52.422;20.818;2024-03-07T03:03:40;43.75;37.00;21.00
59179;PMS7003;44956;52.422;20.818;2024-03-07T03:06:44;47.25;41.50;22.00
59179;PMS7003;44956;52.422;20.818;2024-03-07T03:09:47;46.75;35.50;19.00
59179;PMS7003;44956;52.422;20.818;2024-03-07T03:12:57;45.00;36.00;22.00
59179;PMS7003;44956;52.422;20.818;2024-03-07T03:16:03;50.75;44.00;22.00
59179;PMS7003;44956;52.422;20.818;2024-03-07T03:19:10;53.00;40.75;20.50
59179;PMS7003;44956;52.422;20.818;2024-03-07T03:22:12;34.00;29.75;19.50
59179;PMS7003;44956;52.422;20.818;2024-03-07T03:25:15;46.00;37.25;24.25
59179;PMS7003;44956;52.422;20.818;2024-03-07T03:28:18;49.75;35.00;19.00
59179;PMS7003;44956;52.422;20.818;2024-03-07T03:31:24;47.75;43.50;21.75
59179;PMS7003;44956;52.422;20.818;2024-03-07T03:34:27;47.00;38.25;21.75
59179;PMS7003;44956;52.422;20.818;2024-03-07T03:37:29;46.75;38.50;19.50
59179;PMS7003;44956;52.422;20.818;2024-03-07T03:40:32;37.50;34.25;21.00
59179;PMS7003;44956;52.422;20.818;2024-03-07T03:43:36;33.50;30.00;18.25
59179;PMS7003;44956;52.422;20.818;2024-03-07T03:46:38;47.00;38.50;20.00
59179;PMS7003;44956;52.422;20.818;2024-03-07T03:49:41;48.00;39.50;22.50
59179;PMS7003;44956;52.422;20.818;2024-03-07T03:52:44;47.75;39.50;19.50
59179;PMS7003;44956;52.422;20.818;2024-03-07T03:55:46;38.00;36.25;21.25
59179;PMS7003;44956;52.422;20.818;2024-03-07T03:58:49;49.50;41.25;21.75
59179;PMS7003;44956;52.422;20.818;2024-03-07T04:01:51;42.75;35.50;21.00
59179;PMS7003;44956;52.422;20.818;2024-03-07T04:04:55;50.00;36.50;21.00
59179;PMS7003;44956;52.422;20.818;2024-03-07T04:07:57;47.75;41.50;21.00
59179;PMS7003;44956;52.422;20.818;2024-03-07T04:11:01;44.00;38.00;23.00
59179;PMS7003;44956;52.422;20.818;2024-03-07T04:14:03;39.50;36.00;20.75
59179;PMS7003;44956;52.422;20.818;2024-03-07T04:17:07;41.75;36.75;21.25
59179;PMS7003;44956;52.422;20.818;2024-03-07T04:20:10;53.75;36.50;21.00
59179;PMS7003;44956;52.422;20.818;2024-03-07T04:23:13;51.75;35.75;23.00
59179;PMS7003;44956;52.422;20.818;2024-03-07T04:26:16;50.25;39.75;22.00
59179;PMS7003;44956;52.422;20.818;2024-03-07T04:29:19;39.75;35.50;19.00
59179;PMS7003;44956;52.422;20.818;2024-03-07T04:32:21;51.50;39.50;21.00
59179;PMS7003;44956;52.422;20.818;2024-03-07T04:35:25;47.25;39.50;21.25
59179;PMS7003;44956;52.422;20.818;2024-03-07T04:38:28;42.75;35.75;17.00
59179;PMS7003;44956;52.422;20.818;2024-03-07T04:41:31;44.75;37.00;21.50
59179;PMS7003;44956;52.422;20.818;2024-03-07T04:44:34;45.25;33.50;15.50
59179;PMS7003;44956;52.422;20.818;2024-03-07T04:47:41;38.75;35.25;20.50
59179;PMS7003;44956;52.422;20.818;2024-03-07T04:50:45;41.75;38.75;20.50
59179;PMS7003;44956;52.422;20.818;2024-03-07T04:53:48;43.00;35.00;18.50
59179;PMS7003;44956;52.422;20.818;2024-03-07T04:56:51;47.00;40.25;24.00
59179;PMS7003;44956;52.422;20.818;2024-03-07T04:59:55;51.25;37.75;21.25
59179;PMS7003;44956;52.422;20.818;2024-03-07T05:02:57;53.00;39.00;19.00
59179;PMS7003;44956;52.422;20.818;2024-03-07T05:06:00;43.75;33.75;19.00
59179;PMS7003;44956;52.422;20.818;2024-03-07T05:09:03;41.50;36.75;20.75
59179;PMS7003;44956;52.422;20.818;2024-03-07T05:12:09;50.50;39.25;19.00
59179;PMS7003;44956;52.422;20.818;2024-03-07T05:15:11;50.25;38.50;19.00
59179;PMS7003;44956;52.422;20.818;2024-03-07T05:18:14;48.75;37.50;20.00
59179;PMS7003;44956;52.422;20.818;2024-03-07T05:21:17;44.00;41.50;21.50
59179;PMS7003;44956;52.422;20.818;2024-03-07T05:24:36;38.50;36.75;20.50
59179;PMS7003;44956;52.422;20.818;2024-03-07T05:27:38;45.00;31.00;19.00
59179;PMS7003;44956;52.422;20.818;2024-03-07T05:30:41;41.50;36.00;19.50
59179;PMS7003;44956;52.422;20.818;2024-03-07T05:33:44;43.50;34.75;20.00
59179;PMS7003;44956;52.422;20.818;2024-03-07T05:36:47;40.75;36.75;19.50
59179;PMS7003;44956;52.422;20.818;2024-03-07T05:39:50;41.00;37.00;20.25
59179;PMS7003;44956;52.422;20.818;2024-03-07T05:42:53;42.50;37.50;22.25
59179;PMS7003;44956;52.422;20.818;2024-03-07T05:45:57;40.50;33.50;19.50
59179;PMS7003;44956;52.422;20.818;2024-03-07T05:49:03;40.00;36.00;17.75
59179;PMS7003;44956;52.422;20.818;2024-03-07T05:52:05;53.75;38.75;21.00
59179;PMS7003;44956;52.422;20.818;2024-03-07T05:55:09;43.25;34.25;19.00
59179;PMS7003;44956;52.422;20.818;2024-03-07T05:58:13;51.00;35.00;20.50
59179;PMS7003;44956;52.422;20.818;2024-03-07T06:01:16;48.25;36.50;15.50
59179;PMS7003;44956;52.422;20.818;2024-03-07T06:04:20;47.00;36.25;19.50
59179;PMS7003;44956;52.422;20.818;2024-03-07T06:07:23;39.75;36.25;21.50
59179;PMS7003;44956;52.422;20.818;2024-03-07T06:10:26;43.00;37.50;20.00
59179;PMS7003;44956;52.422;20.818;2024-03-07T06:13:29;38.00;34.50;19.50
59179;PMS7003;44956;52.422;20.818;2024-03-07T06:16:33;39.25;34.25;18.25
59179;PMS7003;44956;52.422;20.818;2024-03-07T06:19:40;40.75;36.00;21.50
59179;PMS7003;44956;52.422;20.818;2024-03-07T06:22:43;41.50;35.25;19.50
59179;PMS7003;44956;52.422;20.818;2024-03-07T06:25:46;45.75;37.50;20.00
59179;PMS7003;44956;52.422;20.818;2024-03-07T06:28:49;43.75;37.75;21.75
59179;PMS7003;44956;52.422;20.818;2024-03-07T06:31:52;62.50;42.00;21.50
59179;PMS7003;44956;52.422;20.818;2024-03-07T06:34:57;52.00;39.50;22.00
59179;PMS7003;44956;52.422;20.818;2024-03-07T06:38:00;46.25;36.50;21.00
59179;PMS7003;44956;52.422;20.818;2024-03-07T06:41:03;47.00;33.50;20.50
59179;PMS7003;44956;52.422;20.818;2024-03-07T06:44:07;43.75;36.00;21.75
59179;PMS7003;44956;52.422;20.818;2024-03-07T06:47:12;40.75;32.75;17.50
59179;PMS7003;44956;52.422;20.818;2024-03-07T06:50:16;29.50;29.50;18.00
59179;PMS7003;44956;52.422;20.818;2024-03-07T06:53:37;41.25;30.50;19.00
59179;PMS7003;44956;52.422;20.818;2024-03-07T06:56:41;32.50;27.25;13.00
59179;PMS7003;44956;52.422;20.818;2024-03-07T06:59:45;42.25;36.50;17.50
59179;PMS7003;44956;52.422;20.818;2024-03-07T07:02:48;42.50;30.00;20.00
59179;PMS7003;44956;52.422;20.818;2024-03-07T07:05:53;34.50;30.50;16.00
59179;PMS7003;44956;52.422;20.818;2024-03-07T07:08:57;35.25;31.50;18.50
59179;PMS7003;44956;52.422;20.818;2024-03-07T07:12:01;43.50;32.25;18.00
59179;PMS7003;44956;52.422;20.818;2024-03-07T07:15:06;35.00;32.75;18.00
59179;PMS7003;44956;52.422;20.818;2024-03-07T07:18:09;31.25;22.00;16.00
59179;PMS7003;44956;52.422;20.818;2024-03-07T07:21:16;33.50;29.50;15.75
59179;PMS7003;44956;52.422;20.818;2024-03-07T07:24:19;36.00;29.00;15.25
59179;PMS7003;44956;52.422;20.818;2024-03-07T07:27:24;32.25;26.00;12.75
59179;PMS7003;44956;52.422;20.818;2024-03-07T07:30:27;28.75;22.50;15.25
59179;PMS7003;44956;52.422;20.818;2024-03-07T07:33:30;30.75;27.50;15.00
59179;PMS7003;44956;52.422;20.818;2024-03-07T07:36:33;37.50;27.00;15.00
59179;PMS7003;44956;52.422;20.818;2024-03-07T07:39:37;33.25;26.00;15.00
59179;PMS7003;44956;52.422;20.818;2024-03-07T07:42:40;35.67;31.33;15.33
59179;PMS7003;44956;52.422;20.818;2024-03-07T07:45:44;32.67;27.00;14.33
59179;PMS7003;44956;52.422;20.818;2024-03-07T07:48:47;33.67;27.67;14.33
59179;PMS7003;44956;52.422;20.818;2024-03-07T07:51:50;26.33;22.67;12.00
59179;PMS7003;44956;52.422;20.818;2024-03-07T07:54:52;30.33;25.00;12.67
59179;PMS7003;44956;52.422;20.818;2024-03-07T07:57:56;23.67;19.67;12.00
59179;PMS7003;44956;52.422;20.818;2024-03-07T08:01:00;30.33;22.67;10.67
59179;PMS7003;44956;52.422;20.818;2024-03-07T08:04:03;23.33;18.00;12.00
59179;PMS7003;44956;52.422;20.818;2024-03-07T08:07:06;24.00;17.33;9.33
59179;PMS7003;44956;52.422;20.818;2024-03-07T08:10:10;27.00;21.33;12.00
59179;PMS7003;44956;52.422;20.818;2024-03-07T08:13:12;27.67;24.00;13.00
59179;PMS7003;44956;52.422;20.818;2024-03-07T08:16:17;16.00;16.00;10.00
59179;PMS7003;44956;52.422;20.818;2024-03-07T08:19:19;24.33;18.33;12.00
59179;PMS7003;44956;52.422;20.818;2024-03-07T08:22:23;22.00;16.00;10.00
59179;PMS7003;44956;52.422;20.818;2024-03-07T08:25:27;16.33;16.33;10.00
59179;PMS7003;44956;52.422;20.818;2024-03-07T08:28:34;17.67;17.67;11.00
59179;PMS7003;44956;52.422;20.818;2024-03-07T08:31:36;17.67;11.33;8.00
59179;PMS7003;44956;52.422;20.818;2024-03-07T08:34:41;20.67;17.00;8.67
59179;PMS7003;44956;52.422;20.818;2024-03-07T08:37:53;17.00;14.00;7.67
59179;PMS7003;44956;52.422;20.818;2024-03-07T08:40:57;24.00;17.00;10.33
59179;PMS7003;44956;52.422;20.818;2024-03-07T08:44:00;20.00;17.67;10.00
59179;PMS7003;44956;52.422;20.818;2024-03-07T08:47:03;17.00;17.00;10.00
59179;PMS7003;44956;52.422;20.818;2024-03-07T08:50:06;15.67;12.67;8.00
59179;PMS7003;44956;52.422;20.818;2024-03-07T08:53:10;21.00;17.00;10.00
59179;PMS7003;44956;52.422;20.818;2024-03-07T08:56:13;21.00;20.67;10.00
59179;PMS7003;44956;52.422;20.818;2024-03-07T08:59:16;15.00;14.00;8.00
59179;PMS7003;44956;52.422;20.818;2024-03-07T09:02:20;16.33;14.67;8.00
59179;PMS7003;44956;52.422;20.818;2024-03-07T09:05:23;17.00;12.67;8.33
59179;PMS7003;44956;52.422;20.818;2024-03-07T09:08:26;20.67;20.67;10.00
59179;PMS7003;44956;52.422;20.818;2024-03-07T09:11:35;20.67;16.67;9.33
59179;PMS7003;44956;52.422;20.818;2024-03-07T09:14:38;24.33;18.33;9.33
59179;PMS7003;44956;52.422;20.818;2024-03-07T09:17:47;24.67;17.67;9.67
59179;PMS7003;44956;52.422;20.818;2024-03-07T09:20:49;18.00;16.00;9.00
59179;PMS7003;44956;52.422;20.818;2024-03-07T09:23:52;14.67;14.67;8.67
59179;PMS7003;44956;52.422;20.818;2024-03-07T09:26:55;18.33;15.33;8.33
59179;PMS7003;44956;52.422;20.818;2024-03-07T09:29:59;16.25;15.50;8.75
59179;PMS7003;44956;52.422;20.818;2024-03-07T09:33:01;20.67;19.33;9.00
59179;PMS7003;44956;52.422;20.818;2024-03-07T09:36:05;16.50;13.75;9.50
59179;PMS7003;44956;52.422;20.818;2024-03-07T09:39:09;19.00;15.00;9.25
59179;PMS7003;44956;52.422;20.818;2024-03-07T09:42:12;21.75;16.75;12.00
59179;PMS7003;44956;52.422;20.818;2024-03-07T09:45:19;24.00;18.75;10.00
59179;PMS7003;44956;52.422;20.818;2024-03-07T09:48:25;14.75;14.75;9.25
59179;PMS7003;44956;52.422;20.818;2024-03-07T09:51:30;19.75;16.00;8.25
59179;PMS7003;44956;52.422;20.818;2024-03-07T09:54:34;17.00;14.00;9.00
59179;PMS7003;44956;52.422;20.818;2024-03-07T09:57:37;17.00;17.00;10.00
59179;PMS7003;44956;52.422;20.818;2024-03-07T10:00:41;24.50;20.50;10.25
59179;PMS7003;44956;52.422;20.818;2024-03-07T10:03:44;18.00;14.00;8.50
59179;PMS7003;44956;52.422;20.818;2024-03-07T10:06:47;21.00;17.00;8.50
59179;PMS7003;44956;52.422;20.818;2024-03-07T10:09:51;19.00;15.25;10.00
59179;PMS7003;44956;52.422;20.818;2024-03-07T10:12:58;18.25;16.50;10.00
59179;PMS7003;44956;52.422;20.818;2024-03-07T10:16:02;22.50;20.50;10.00
59179;PMS7003;44956;52.422;20.818;2024-03-07T10:19:09;22.25;15.00;9.25
59179;PMS7003;44956;52.422;20.818;2024-03-07T10:22:12;16.75;15.00;10.50
59179;PMS7003;44956;52.422;20.818;2024-03-07T10:25:16;13.00;13.00;5.50
59179;PMS7003;44956;52.422;20.818;2024-03-07T10:28:20;15.75;14.00;9.00
59179;PMS7003;44956;52.422;20.818;2024-03-07T10:31:32;22.50;18.00;9.25
59179;PMS7003;44956;52.422;20.818;2024-03-07T10:34:42;18.00;16.50;9.25
59179;PMS7003;44956;52.422;20.818;2024-03-07T10:37:48;18.50;18.25;10.50
59179;PMS7003;44956;52.422;20.818;2024-03-07T10:40:52;18.75;18.50;9.00
59179;PMS7003;44956;52.422;20.818;2024-03-07T10:43:57;20.50;18.75;10.00
59179;PMS7003;44956;52.422;20.818;2024-03-07T10:47:02;14.75;14.75;9.00
59179;PMS7003;44956;52.422;20.818;2024-03-07T10:53:24;14.00;14.00;7.75
59179;PMS7003;44956;52.422;20.818;2024-03-07T11:00:14;20.75;17.00;9.25
59179;PMS7003;44956;52.422;20.818;2024-03-07T11:03:32;20.25;18.25;9.50
59179;PMS7003;44956;52.422;20.818;2024-03-07T11:06:37;18.00;14.00;10.00
59179;PMS7003;44956;52.422;20.818;2024-03-07T11:09:40;14.75;14.75;7.50
59179;PMS7003;44956;52.422;20.818;2024-03-07T11:12:45;17.25;14.50;9.50
59179;PMS7003;44956;52.422;20.818;2024-03-07T11:15:49;19.25;17.50;9.50
59179;PMS7003;44956;52.422;20.818;2024-03-07T11:22:32;18.00;16.50;11.00
59179;PMS7003;44956;52.422;20.818;2024-03-07T11:25:36;19.00;16.75;10.50
59179;PMS7003;44956;52.422;20.818;2024-03-07T11:28:41;15.25;13.00;8.00
59179;PMS7003;44956;52.422;20.818;2024-03-07T11:31:44;16.00;15.50;10.00
59179;PMS7003;44956;52.422;20.818;2024-03-07T11:34:48;18.50;15.75;8.00
59179;PMS7003;44956;52.422;20.818;2024-03-07T11:37:56;17.50;15.50;9.00
59179;PMS7003;44956;52.422;20.818;2024-03-07T11:41:00;16.00;16.00;11.00
59179;PMS7003;44956;52.422;20.818;2024-03-07T11:44:07;17.00;17.00;10.00
59179;PMS7003;44956;52.422;20.818;2024-03-07T11:47:12;16.00;14.00;10.00
59179;PMS7003;44956;52.422;20.818;2024-03-07T11:50:15;19.50;15.25;10.00
59179;PMS7003;44956;52.422;20.818;2024-03-07T11:53:22;20.25;16.50;9.25
59179;PMS7003;44956;52.422;20.818;2024-03-07T11:56:25;15.75;15.25;10.50
59179;PMS7003;44956;52.422;20.818;2024-03-07T11:59:28;20.50;15.75;10.00
59179;PMS7003;44956;52.422;20.818;2024-03-07T12:02:39;21.50;19.50;9.25
59179;PMS7003;44956;52.422;20.818;2024-03-07T12:05:45;15.25;13.25;9.50
59179;PMS7003;44956;52.422;20.818;2024-03-07T12:08:48;15.25;15.25;8.50
59179;PMS7003;44956;52.422;20.818;2024-03-07T12:11:52;18.75;14.00;8.50
59179;PMS7003;44956;52.422;20.818;2024-03-07T12:14:55;17.50;13.75;8.50
59179;PMS7003;44956;52.422;20.818;2024-03-07T12:17:58;16.00;13.75;8.50
59179;PMS7003;44956;52.422;20.818;2024-03-07T12:21:04;21.25;17.75;9.25
59179;PMS7003;44956;52.422;20.818;2024-03-07T12:24:12;21.75;17.75;10.50
59179;PMS7003;44956;52.422;20.818;2024-03-07T12:27:15;20.75;14.25;10.00
59179;PMS7003;44956;52.422;20.818;2024-03-07T12:30:19;21.50;17.75;11.25
59179;PMS7003;44956;52.422;20.818;2024-03-07T12:33:22;25.50;19.00;9.00
59179;PMS7003;44956;52.422;20.818;2024-03-07T12:36:29;20.50;18.50;11.75
59179;PMS7003;44956;52.422;20.818;2024-03-07T12:39:36;15.50;15.50;9.25
59179;PMS7003;44956;52.422;20.818;2024-03-07T12:42:52;22.00;17.50;10.00
59179;PMS7003;44956;52.422;20.818;2024-03-07T12:45:57;20.25;20.25;11.00
59179;PMS7003;44956;52.422;20.818;2024-03-07T12:49:01;16.75;16.75;9.50
59179;PMS7003;44956;52.422;20.818;2024-03-07T12:52:05;20.75;15.50;10.00
59179;PMS7003;44956;52.422;20.818;2024-03-07T12:55:10;14.75;13.00;9.00
59179;PMS7003;44956;52.422;20.818;2024-03-07T12:58:15;14.00;14.00;8.50
59179;PMS7003;44956;52.422;20.818;2024-03-07T13:01:18;18.75;14.00;8.50
59179;PMS7003;44956;52.422;20.818;2024-03-07T13:04:22;17.25;17.25;9.50
59179;PMS7003;44956;52.422;20.818;2024-03-07T13:07:28;19.50;15.25;10.00
59179;PMS7003;44956;52.422;20.818;2024-03-07T13:10:30;15.50;14.50;8.25
59179;PMS7003;44956;52.422;20.818;2024-03-07T13:13:33;19.50;17.00;8.00
59179;PMS7003;44956;52.422;20.818;2024-03-07T13:16:36;14.00;13.25;7.50
59179;PMS7003;44956;52.422;20.818;2024-03-07T13:19:39;16.25;15.25;7.25
59179;PMS7003;44956;52.422;20.818;2024-03-07T13:22:45;20.50;19.25;11.00
59179;PMS7003;44956;52.422;20.818;2024-03-07T13:25:51;16.75;16.25;9.25
59179;PMS7003;44956;52.422;20.818;2024-03-07T13:28:54;22.75;17.00;9.25
59179;PMS7003;44956;52.422;20.818;2024-03-07T13:31:57;19.25;17.50;10.00
59179;PMS7003;44956;52.422;20.818;2024-03-07T13:35:00;19.00;15.75;9.50
59179;PMS7003;44956;52.422;20.818;2024-03-07T13:38:03;14.00;12.00;8.50
59179;PMS7003;44956;52.422;20.818;2024-03-07T13:41:06;17.50;16.25;8.00
59179;PMS7003;44956;52.422;20.818;2024-03-07T13:44:09;18.25;15.00;8.00
59179;PMS7003;44956;52.422;20.818;2024-03-07T13:47:11;18.00;13.50;6.75
59179;PMS7003;44956;52.422;20.818;2024-03-07T13:50:18;16.75;14.25;9.50
59179;PMS7003;44956;52.422;20.818;2024-03-07T13:53:41;19.00;17.25;8.00
59179;PMS7003;44956;52.422;20.818;2024-03-07T13:56:52;17.25;14.75;8.50
59179;PMS7003;44956;52.422;20.818;2024-03-07T14:14:45;16.50;14.00;7.75
59179;PMS7003;44956;52.422;20.818;2024-03-07T14:18:17;15.25;14.00;8.00
59179;PMS7003;44956;52.422;20.818;2024-03-07T14:21:48;16.25;14.75;7.75
59179;PMS7003;44956;52.422;20.818;2024-03-07T14:31:48;13.00;13.00;9.75
59179;PMS7003;44956;52.422;20.818;2024-03-07T14:35:12;19.50;16.50;8.00
59179;PMS7003;44956;52.422;20.818;2024-03-07T14:41:37;15.25;13.25;7.25
59179;PMS7003;44956;52.422;20.818;2024-03-07T14:45:01;20.25;13.75;8.00
59179;PMS7003;44956;52.422;20.818;2024-03-07T14:48:10;16.00;16.00;8.00
59179;PMS7003;44956;52.422;20.818;2024-03-07T14:51:15;20.50;15.25;10.75
59179;PMS7003;44956;52.422;20.818;2024-03-07T14:54:20;15.25;15.25;8.50
59179;PMS7003;44956;52.422;20.818;2024-03-07T14:57:25;16.50;16.50;8.75
59179;PMS7003;44956;52.422;20.818;2024-03-07T15:00:28;21.75;17.00;8.25
59179;PMS7003;44956;52.422;20.818;2024-03-07T15:03:43;18.50;16.75;9.25
59179;PMS7003;44956;52.422;20.818;2024-03-07T15:06:47;17.25;16.25;8.50
59179;PMS7003;44956;52.422;20.818;2024-03-07T15:09:50;15.75;13.00;5.75
59179;PMS7003;44956;52.422;20.818;2024-03-07T15:12:53;17.50;16.50;10.50
59179;PMS7003;44956;52.422;20.818;2024-03-07T15:15:56;12.50;11.25;7.50
59179;PMS7003;44956;52.422;20.818;2024-03-07T15:19:00;20.75;17.25;9.50
59179;PMS7003;44956;52.422;20.818;2024-03-07T15:22:03;18.25;15.50;8.00
59179;PMS7003;44956;52.422;20.818;2024-03-07T15:25:07;17.00;17.00;10.00
59179;PMS7003;44956;52.422;20.818;2024-03-07T15:28:14;19.50;14.00;10.00
59179;PMS7003;44956;52.422;20.818;2024-03-07T15:31:17;15.25;11.75;7.75
59179;PMS7003;44956;52.422;20.818;2024-03-07T15:34:21;19.50;14.25;8.00
59179;PMS7003;44956;52.422;20.818;2024-03-07T15:37:24;15.75;12.75;8.25
59179;PMS7003;44956;52.422;20.818;2024-03-07T15:40:31;16.00;15.50;8.00
59179;PMS7003;44956;52.422;20.818;2024-03-07T15:43:34;16.25;15.00;8.00
59179;PMS7003;44956;52.422;20.818;2024-03-07T15:46:37;14.00;14.00;7.00
59179;PMS7003;44956;52.422;20.818;2024-03-07T15:49:40;15.00;11.50;7.00
59179;PMS7003;44956;52.422;20.818;2024-03-07T15:52:44;15.00;15.00;7.25
59179;PMS7003;44956;52.422;20.818;2024-03-07T15:55:47;15.50;14.00;9.00
59179;PMS7003;44956;52.422;20.818;2024-03-07T15:58:50;21.50;17.75;8.75
59179;PMS7003;44956;52.422;20.818;2024-03-07T16:01:52;18.75;15.25;7.00
59179;PMS7003;44956;52.422;20.818;2024-03-07T16:04:56;10.75;9.75;7.00
59179;PMS7003;44956;52.422;20.818;2024-03-07T16:07:59;13.75;11.00;7.00
59179;PMS7003;44956;52.422;20.818;2024-03-07T16:11:04;14.50;11.50;5.50
59179;PMS7003;44956;52.422;20.818;2024-03-07T16:14:06;16.25;14.00;6.50
59179;PMS7003;44956;52.422;20.818;2024-03-07T16:17:10;11.50;11.00;6.00
59179;PMS7003;44956;52.422;20.818;2024-03-07T16:20:12;13.25;11.00;7.00
59179;PMS7003;44956;52.422;20.818;2024-03-07T16:23:15;15.75;10.00;6.75
59179;PMS7003;44956;52.422;20.818;2024-03-07T16:26:19;14.25;12.25;6.50
59179;PMS7003;44956;52.422;20.818;2024-03-07T16:29:23;14.00;9.75;6.00
59179;PMS7003;44956;52.422;20.818;2024-03-07T16:32:25;13.00;13.00;7.00
59179;PMS7003;44956;52.422;20.818;2024-03-07T16:35:30;14.00;13.75;6.00
59179;PMS7003;44956;52.422;20.818;2024-03-07T16:38:35;14.00;13.75;6.75
59179;PMS7003;44956;52.422;20.818;2024-03-07T16:41:41;15.25;14.00;9.00
59179;PMS7003;44956;52.422;20.818;2024-03-07T16:44:45;11.75;11.75;8.00
59179;PMS7003;44956;52.422;20.818;2024-03-07T16:47:48;15.00;14.75;8.75
59179;PMS7003;44956;52.422;20.818;2024-03-07T16:50:55;19.75;12.00;8.00
59179;PMS7003;44956;52.422;20.818;2024-03-07T16:53:58;12.25;12.25;7.50
59179;PMS7003;44956;52.422;20.818;2024-03-07T16:57:00;9.75;9.00;4.00
59179;PMS7003;44956;52.422;20.818;2024-03-07T17:00:05;13.75;12.25;6.00
59179;PMS7003;44956;52.422;20.818;2024-03-07T17:03:09;10.67;10.67;6.00
59179;PMS7003;44956;52.422;20.818;2024-03-07T17:06:14;13.00;10.33;4.00
59179;PMS7003;44956;52.422;20.818;2024-03-07T17:09:17;13.67;13.00;8.00
59179;PMS7003;44956;52.422;20.818;2024-03-07T17:12:22;19.33;16.00;8.67
59179;PMS7003;44956;52.422;20.818;2024-03-07T17:15:24;22.67;18.00;9.00
59179;PMS7003;44956;52.422;20.818;2024-03-07T17:18:28;15.33;15.00;9.00
59179;PMS7003;44956;52.422;20.818;2024-03-07T17:21:31;15.00;11.00;6.33
59179;PMS7003;44956;52.422;20.818;2024-03-07T17:24:34;24.67;22.00;11.00
59179;PMS7003;44956;52.422;20.818;2024-03-07T17:27:37;29.00;26.33;12.00
59179;PMS7003;44956;52.422;20.818;2024-03-07T17:30:40;22.00;20.33;11.00
59179;PMS7003;44956;52.422;20.818;2024-03-07T17:33:43;21.67;18.33;9.00
59179;PMS7003;44956;52.422;20.818;2024-03-07T17:36:49;27.00;22.33;11.00
59179;PMS7003;44956;52.422;20.818;2024-03-07T17:39:52;21.00;17.00;9.33
59179;PMS7003;44956;52.422;20.818;2024-03-07T17:42:58;18.67;15.67;10.33